createdAt,value
2022-11-01T00:02:04.309Z,17.9
2022-11-01T00:04:04.274Z,17.9
2022-11-01T00:06:04.294Z,17.9
2022-11-01T00:09:04.269Z,17.87
2022-11-01T00:11:04.292Z,17.87
2022-11-01T00:14:04.271Z,17.83
2022-11-01T00:16:04.285Z,17.82
2022-11-01T00:18:04.382Z,17.84
2022-11-01T00:20:04.927Z,17.86
2022-11-01T00:23:04.657Z,17.87
2022-11-01T00:25:04.335Z,17.89
2022-11-01T00:28:04.600Z,17.91
2022-11-01T00:30:04.313Z,17.87
2022-11-01T00:32:04.301Z,17.87
2022-11-01T00:34:04.362Z,17.89
2022-11-01T00:37:04.321Z,17.91
2022-11-01T00:39:04.557Z,17.91
2022-11-01T00:42:04.293Z,17.92
2022-11-01T00:45:04.605Z,17.91
2022-11-01T00:47:05.419Z,17.91
2022-11-01T00:50:04.315Z,17.91
2022-11-01T00:53:04.287Z,17.95
2022-11-01T00:55:04.306Z,17.95
2022-11-01T00:58:04.391Z,17.95
2022-11-01T01:01:04.333Z,17.93
2022-11-01T01:04:04.316Z,17.9
2022-11-01T01:06:04.359Z,17.89
2022-11-01T01:09:04.323Z,17.89
2022-11-01T01:12:04.330Z,17.84
2022-11-01T01:15:04.479Z,17.85
2022-11-01T01:18:04.629Z,17.85
2022-11-01T01:20:04.294Z,17.86
2022-11-01T01:22:05.336Z,17.87
2022-11-01T01:24:04.293Z,17.87
2022-11-01T01:26:04.383Z,17.85
2022-11-01T01:29:04.322Z,17.85
2022-11-01T01:32:04.361Z,17.87
2022-11-01T01:35:04.330Z,17.85
2022-11-01T01:38:04.504Z,17.87
2022-11-01T01:40:04.292Z,17.87
2022-11-01T01:43:04.315Z,17.89
2022-11-01T01:46:04.299Z,17.89
2022-11-01T01:48:04.549Z,17.9
2022-11-01T01:51:04.280Z,17.87
2022-11-01T01:53:04.424Z,17.87
2022-11-01T01:56:04.304Z,17.9
2022-11-01T01:59:04.262Z,17.9
2022-11-01T02:02:04.340Z,17.89
2022-11-01T02:06:04.355Z,17.89
2022-11-01T02:09:04.390Z,17.91
2022-11-01T02:11:14.572Z,17.91
2022-11-01T02:14:24.867Z,17.9
2022-11-01T02:18:26.545Z,17.93
2022-11-01T02:20:50.488Z,17.96
2022-11-01T02:22:53.879Z,17.98
2022-11-01T02:25:39.526Z,17.94
2022-11-01T02:28:24.865Z,17.86
2022-11-01T02:31:25.884Z,17.85
2022-11-01T02:34:26.590Z,17.82
2022-11-01T02:37:24.877Z,17.85
2022-11-01T02:39:24.880Z,17.9
2022-11-01T02:41:24.962Z,17.92
2022-11-01T02:44:14.586Z,17.95
2022-11-01T02:46:14.572Z,17.95
2022-11-01T02:49:04.271Z,17.91
2022-11-01T02:52:04.290Z,17.87
2022-11-01T02:54:18.806Z,17.84
2022-11-01T02:57:04.286Z,17.84
2022-11-01T02:59:04.299Z,17.79
2022-11-01T03:01:04.365Z,17.84
2022-11-01T03:04:04.318Z,17.86
2022-11-01T03:07:04.298Z,17.92
2022-11-01T03:09:04.297Z,17.92
2022-11-01T03:12:04.288Z,17.95
2022-11-01T03:14:04.287Z,17.96
2022-11-01T03:16:04.312Z,18
2022-11-01T03:19:14.584Z,18.01
2022-11-01T03:22:04.322Z,17.96
2022-11-01T03:24:04.302Z,17.99
2022-11-01T03:27:04.304Z,17.96
2022-11-01T03:29:04.316Z,18
2022-11-01T03:31:04.334Z,18.03
2022-11-01T03:34:04.321Z,18.06
2022-11-01T03:36:04.319Z,18.07
2022-11-01T03:39:04.379Z,18.06
2022-11-01T03:42:04.311Z,18.04
2022-11-01T03:44:04.323Z,18.04
2022-11-01T03:47:04.323Z,18.06
2022-11-01T03:50:04.314Z,18.06
2022-11-01T03:52:04.359Z,18.03
2022-11-01T03:55:04.330Z,18.01
2022-11-01T03:58:04.717Z,18.01
2022-11-01T04:01:04.376Z,17.99
2022-11-01T04:03:14.590Z,18
2022-11-01T04:06:04.353Z,18.01
2022-11-01T04:09:04.287Z,18.03
2022-11-01T04:11:04.287Z,18.04
2022-11-01T04:13:14.580Z,18.04
2022-11-01T04:16:04.292Z,18.06
2022-11-01T04:18:04.388Z,18.04
2022-11-01T04:21:04.288Z,17.99
2022-11-01T04:23:04.845Z,17.95
2022-11-01T04:26:04.298Z,17.89
2022-11-01T04:29:04.302Z,17.92
2022-11-01T04:31:04.354Z,17.92
2022-11-01T04:34:04.295Z,17.92
2022-11-01T04:37:04.309Z,17.94
2022-11-01T04:40:04.316Z,17.93
2022-11-01T04:42:04.378Z,17.92
2022-11-01T04:45:04.291Z,17.95
2022-11-01T04:47:04.316Z,17.95
2022-11-01T04:50:04.303Z,17.98
2022-11-01T04:52:04.341Z,18.01
2022-11-01T04:55:04.362Z,18.02
2022-11-01T04:57:04.301Z,18.03
2022-11-01T05:00:04.332Z,18.07
2022-11-01T05:03:04.835Z,18.12
2022-11-01T05:06:04.328Z,18.14
2022-11-01T05:09:04.317Z,18.12
2022-11-01T05:11:04.308Z,18.11
2022-11-01T05:13:04.534Z,18.1
2022-11-01T05:16:19.938Z,18.1
2022-11-01T05:19:04.323Z,18.08
2022-11-01T05:21:04.321Z,18.04
2022-11-01T05:24:04.356Z,18.09
2022-11-01T05:26:04.319Z,18.11
2022-11-01T05:29:08.666Z,18.15
2022-11-01T05:32:04.394Z,18.15
2022-11-01T05:35:04.341Z,18.12
2022-11-01T05:37:04.338Z,18.14
2022-11-01T05:39:07.499Z,18.15
2022-11-01T05:42:04.339Z,18.16
2022-11-01T05:44:04.309Z,18.12
2022-11-01T05:47:04.325Z,18.11
2022-11-01T05:49:04.328Z,18.12
2022-11-01T05:52:04.316Z,18.08
2022-11-01T05:54:04.321Z,18.1
2022-11-01T05:57:04.312Z,18.09
2022-11-01T06:00:05.342Z,18.08
2022-11-01T06:03:04.584Z,18.09
2022-11-01T06:06:04.328Z,18.1
2022-11-01T06:08:04.347Z,18.1
2022-11-01T06:11:04.322Z,18.08
2022-11-01T06:13:04.662Z,18.09
2022-11-01T06:16:04.408Z,18.07
2022-11-01T06:18:04.635Z,18.06
2022-11-01T06:21:04.369Z,18.08
2022-11-01T06:23:04.421Z,18.06
2022-11-01T06:26:04.393Z,18.04
2022-11-01T06:28:04.581Z,18.06
2022-11-01T06:33:04.664Z,18.08
2022-11-01T06:35:04.402Z,18.09
2022-11-01T06:38:04.403Z,18.11
2022-11-01T06:42:04.377Z,18.08
2022-11-01T06:44:14.673Z,18.01
2022-11-01T06:47:45.531Z,18.06
2022-11-01T06:50:14.668Z,18.08
2022-11-01T06:52:14.695Z,18.04
2022-11-01T06:55:04.397Z,18.06
2022-11-01T06:58:04.754Z,18.07
2022-11-01T07:00:04.363Z,18.04
2022-11-01T07:02:04.523Z,18.04
2022-11-01T07:05:04.401Z,18.04
2022-11-01T07:07:04.401Z,18.08
2022-11-01T07:10:04.420Z,18.08
2022-11-01T07:13:04.392Z,18.04
2022-11-01T07:16:04.371Z,18.11
2022-11-01T07:19:04.425Z,18.09
2022-11-01T07:22:04.396Z,18.11
2022-11-01T07:25:04.375Z,18.07
2022-11-01T07:27:04.418Z,18.08
2022-11-01T07:30:04.395Z,18.08
2022-11-01T07:32:04.405Z,18.12
2022-11-01T07:35:04.363Z,18.11
2022-11-01T07:38:06.388Z,18.12
2022-11-01T07:40:04.412Z,18.12
2022-11-01T07:42:04.380Z,18.12
2022-11-01T07:44:04.390Z,18.11
2022-11-01T07:47:04.396Z,18.12
2022-11-01T07:49:04.399Z,18.11
2022-11-01T07:52:04.393Z,18.15
2022-11-01T07:56:04.392Z,18.18
2022-11-01T08:00:04.401Z,18.19
2022-11-01T08:04:04.407Z,18.16
2022-11-01T08:06:14.743Z,18.16
2022-11-01T08:09:04.419Z,18.16
2022-11-01T08:12:04.410Z,18.15
2022-11-01T08:14:06.240Z,18.14
2022-11-01T08:16:04.413Z,18.15
2022-11-01T08:18:14.674Z,18.15
2022-11-01T08:21:04.397Z,18.14
2022-11-01T08:24:04.401Z,18.1
2022-11-01T08:27:04.495Z,18.1
2022-11-01T08:30:04.481Z,18.09
2022-11-01T08:33:04.888Z,18.11
2022-11-01T08:36:04.437Z,18.12
2022-11-01T08:39:04.445Z,18.11
2022-11-01T08:41:04.438Z,18.12
2022-11-01T08:44:04.452Z,18.12
2022-11-01T08:46:04.406Z,18.12
2022-11-01T08:48:04.432Z,18.12
2022-11-01T08:51:04.411Z,18.07
2022-11-01T08:54:04.399Z,18.04
2022-11-01T08:57:04.420Z,18.14
2022-11-01T09:00:04.428Z,18.18
2022-11-01T09:02:04.565Z,18.18
2022-11-01T09:04:04.450Z,18.16
2022-11-01T09:06:14.726Z,18.14
2022-11-01T09:09:04.420Z,18.12
2022-11-01T09:11:04.438Z,18.11
2022-11-01T09:14:04.405Z,18.08
2022-11-01T09:16:04.435Z,18.06
2022-11-01T09:19:04.396Z,18.04
2022-11-01T09:21:04.428Z,18.07
2022-11-01T09:24:04.405Z,18.03
2022-11-01T09:27:04.420Z,18.01
2022-11-01T09:29:04.417Z,17.99
2022-11-01T09:31:15.692Z,17.98
2022-11-01T09:34:04.408Z,17.93
2022-11-01T09:37:04.426Z,17.94
2022-11-01T09:40:04.413Z,17.98
2022-11-01T09:43:04.812Z,17.93
2022-11-01T09:46:04.398Z,17.9
2022-11-01T09:48:04.737Z,17.89
2022-11-01T09:50:04.430Z,17.9
2022-11-01T09:52:04.428Z,17.89
2022-11-01T09:55:07.051Z,17.82
2022-11-01T09:58:04.695Z,17.86
2022-11-01T10:00:04.424Z,17.86
2022-11-01T10:03:04.553Z,17.81
2022-11-01T10:06:04.449Z,17.79
2022-11-01T10:10:04.416Z,17.81
2022-11-01T10:12:14.706Z,17.79
2022-11-01T10:15:04.449Z,17.83
2022-11-01T10:17:04.424Z,17.82
2022-11-01T10:20:04.507Z,17.78
2022-11-01T10:22:04.456Z,17.79
2022-11-01T10:24:14.749Z,17.81
2022-11-01T10:27:04.419Z,17.81
2022-11-01T10:29:04.452Z,17.82
2022-11-01T10:32:04.426Z,17.84
2022-11-01T10:34:04.468Z,17.89
2022-11-01T10:37:04.437Z,18
2022-11-01T10:42:04.465Z,18.2
2022-11-01T10:45:04.421Z,18.36
2022-11-01T10:47:04.444Z,18.48
2022-11-01T10:49:04.462Z,18.58
2022-11-01T10:52:04.429Z,18.77
2022-11-01T10:54:04.462Z,18.85
2022-11-01T10:56:04.489Z,18.98
2022-11-01T10:59:04.471Z,19.15
2022-11-01T11:01:04.450Z,19.25
2022-11-01T11:03:04.522Z,19.35
2022-11-01T11:06:04.426Z,19.49
2022-11-01T11:08:04.698Z,19.59
2022-11-01T11:11:04.432Z,19.75
2022-11-01T11:14:04.414Z,19.87
2022-11-01T11:16:04.419Z,19.99
2022-11-01T11:18:04.464Z,20.09
2022-11-01T11:22:04.453Z,20.27
2022-11-01T11:24:14.730Z,20.37
2022-11-01T11:27:04.464Z,20.5
2022-11-01T11:30:04.441Z,20.6
2022-11-01T11:33:04.434Z,20.72
2022-11-01T11:36:04.458Z,20.88
2022-11-01T11:38:04.764Z,20.96
2022-11-01T11:40:04.433Z,21.06
2022-11-01T11:43:04.443Z,21.23
2022-11-01T11:45:04.460Z,21.33
2022-11-01T11:47:04.426Z,21.41
2022-11-01T11:50:04.459Z,21.51
2022-11-01T11:52:04.441Z,21.58
2022-11-01T11:55:04.524Z,21.65
2022-11-01T11:58:04.871Z,21.72
2022-11-01T12:00:04.480Z,21.78
2022-11-01T12:03:04.752Z,21.88
2022-11-01T12:06:04.451Z,22.03
2022-11-01T12:08:04.430Z,22.1
2022-11-01T12:11:04.446Z,22.2
2022-11-01T12:14:04.455Z,22.33
2022-11-01T12:16:04.465Z,22.41
2022-11-01T12:19:04.465Z,22.45
2022-11-01T12:21:11.660Z,22.55
2022-11-01T12:23:04.443Z,22.6
2022-11-01T12:25:07.577Z,22.71
2022-11-01T12:28:04.707Z,22.83
2022-11-01T12:30:04.449Z,22.96
2022-11-01T12:36:04.463Z,23.23
2022-11-01T12:38:14.784Z,23.3
2022-11-01T12:40:26.716Z,23.34
2022-11-01T12:43:26.718Z,23.38
2022-11-01T12:46:14.770Z,23.4
2022-11-01T12:49:04.477Z,23.41
2022-11-01T12:51:04.494Z,23.43
2022-11-01T12:54:04.488Z,23.49
2022-11-01T12:57:04.455Z,23.55
2022-11-01T12:59:04.467Z,23.61
2022-11-01T13:01:04.523Z,23.65
2022-11-01T13:04:04.507Z,23.79
2022-11-01T13:07:04.512Z,23.88
2022-11-01T13:10:04.587Z,23.91
2022-11-01T13:13:04.570Z,23.92
2022-11-01T13:16:04.506Z,24
2022-11-01T13:21:04.519Z,24.24
2022-11-01T13:23:14.745Z,24.29
2022-11-01T13:25:14.795Z,24.38
2022-11-01T13:28:04.459Z,24.44
2022-11-01T13:30:04.510Z,24.47
2022-11-01T13:33:04.695Z,24.52
2022-11-01T13:35:04.512Z,24.6
2022-11-01T13:37:04.492Z,24.69
2022-11-01T13:40:04.502Z,24.83
2022-11-01T13:43:04.955Z,24.86
2022-11-01T13:46:04.464Z,24.94
2022-11-01T13:48:04.904Z,24.92
2022-11-01T13:51:04.459Z,24.94
2022-11-01T13:53:04.475Z,24.89
2022-11-01T13:55:04.476Z,24.84
2022-11-01T13:58:04.771Z,24.81
2022-11-01T14:00:04.489Z,24.82
2022-11-01T14:03:04.457Z,24.81
2022-11-01T14:05:04.466Z,24.86
2022-11-01T14:07:05.056Z,24.81
2022-11-01T14:09:04.473Z,24.79
2022-11-01T14:11:04.501Z,24.77
2022-11-01T14:14:04.466Z,24.97
2022-11-01T14:17:04.479Z,25.06
2022-11-01T14:19:04.471Z,25.04
2022-11-01T14:22:07.578Z,25.04
2022-11-01T14:24:04.492Z,25.05
2022-11-01T14:27:04.484Z,25.21
2022-11-01T14:29:04.496Z,25.31
2022-11-01T14:31:04.584Z,25.32
2022-11-01T14:34:04.522Z,25.3
2022-11-01T14:36:12.379Z,25.32
2022-11-01T14:39:04.519Z,25.38
2022-11-01T14:42:04.510Z,25.38
2022-11-01T14:44:04.522Z,25.41
2022-11-01T14:46:14.789Z,25.41
2022-11-01T14:49:04.488Z,25.35
2022-11-01T14:51:04.507Z,25.3
2022-11-01T14:53:04.638Z,25.28
2022-11-01T14:55:04.526Z,25.26
2022-11-01T14:57:04.487Z,25.2
2022-11-01T15:00:14.862Z,25.09
2022-11-01T15:03:14.789Z,25.12
2022-11-01T15:07:04.529Z,25.04
2022-11-01T15:09:04.572Z,24.97
2022-11-01T15:12:04.523Z,24.92
2022-11-01T15:14:21.984Z,24.94
2022-11-01T15:17:04.515Z,24.89
2022-11-01T15:19:26.787Z,24.84
2022-11-01T15:22:14.787Z,24.74
2022-11-01T15:25:04.535Z,24.59
2022-11-01T15:27:04.519Z,24.4
2022-11-01T15:31:04.522Z,24.02
2022-11-01T15:33:25.059Z,23.86
2022-11-01T15:35:25.081Z,23.7
2022-11-01T15:39:04.515Z,23.38
2022-11-01T15:43:04.927Z,23.09
2022-11-01T15:45:25.109Z,22.97
2022-11-01T15:48:14.803Z,22.76
2022-11-01T15:51:04.527Z,22.58
2022-11-01T15:55:04.521Z,22.39
2022-11-01T15:57:14.803Z,22.29
2022-11-01T16:00:04.548Z,22.12
2022-11-01T16:03:04.849Z,21.97
2022-11-01T16:05:25.085Z,21.91
2022-11-01T16:08:04.549Z,21.8
2022-11-01T16:11:04.489Z,21.69
2022-11-01T16:13:04.938Z,21.61
2022-11-01T16:16:15.820Z,21.45
2022-11-01T16:20:04.597Z,21.31
2022-11-01T16:24:09.393Z,21.23
2022-11-01T16:26:14.811Z,21.18
2022-11-01T16:28:14.830Z,21.13
2022-11-01T16:31:04.534Z,21.05
2022-11-01T16:34:04.516Z,21.02
2022-11-01T16:36:04.615Z,20.94
2022-11-01T16:38:04.889Z,20.88
2022-11-01T16:41:04.494Z,20.81
2022-11-01T16:43:04.530Z,20.71
2022-11-01T16:46:04.538Z,20.63
2022-11-01T16:48:04.855Z,20.6
2022-11-01T16:50:04.570Z,20.52
2022-11-01T16:53:04.540Z,20.43
2022-11-01T16:55:04.567Z,20.41
2022-11-01T16:58:04.698Z,20.41
2022-11-01T17:00:04.608Z,20.37
2022-11-01T17:03:04.926Z,20.26
2022-11-01T17:06:04.552Z,20.21
2022-11-01T17:09:04.520Z,20.18
2022-11-01T17:11:04.539Z,20.23
2022-11-01T17:13:04.532Z,20.18
2022-11-01T17:16:04.600Z,20.07
2022-11-01T17:20:04.533Z,19.96
2022-11-01T17:23:04.586Z,19.98
2022-11-01T17:26:04.529Z,19.93
2022-11-01T17:29:04.567Z,19.85
2022-11-01T17:31:04.550Z,19.79
2022-11-01T17:34:04.536Z,19.7
2022-11-01T17:36:04.532Z,19.67
2022-11-01T17:39:04.567Z,19.58
2022-11-01T17:41:04.600Z,19.61
2022-11-01T17:44:04.549Z,19.59
2022-11-01T17:46:04.545Z,19.58
2022-11-01T17:49:04.570Z,19.58
2022-11-01T17:52:04.536Z,19.54
2022-11-01T17:55:04.556Z,19.46
2022-11-01T17:57:04.560Z,19.49
2022-11-01T18:00:04.563Z,19.51
2022-11-01T18:03:04.542Z,19.53
2022-11-01T18:05:04.567Z,19.53
2022-11-01T18:07:14.312Z,19.46
2022-11-01T18:11:04.614Z,19.44
2022-11-01T18:15:04.534Z,19.42
2022-11-01T18:17:14.844Z,19.44
2022-11-01T18:20:04.568Z,19.35
2022-11-01T18:22:04.550Z,19.32
2022-11-01T18:25:04.560Z,19.33
2022-11-01T18:28:04.763Z,19.34
2022-11-01T18:31:04.568Z,19.33
2022-11-01T18:33:04.580Z,19.32
2022-11-01T18:35:04.823Z,19.23
2022-11-01T18:38:04.842Z,19.25
2022-11-01T18:40:04.570Z,19.26
2022-11-01T18:43:04.935Z,19.27
2022-11-01T18:45:04.564Z,19.26
2022-11-01T18:48:04.773Z,19.18
2022-11-01T18:50:04.587Z,19.18
2022-11-01T18:52:04.614Z,19.17
2022-11-01T18:55:04.579Z,19.09
2022-11-01T18:57:04.583Z,18.99
2022-11-01T19:00:04.563Z,18.93
2022-11-01T19:02:04.753Z,18.94
2022-11-01T19:05:04.580Z,18.89
2022-11-01T19:08:11.188Z,18.9
2022-11-01T19:11:04.555Z,18.91
2022-11-01T19:13:04.551Z,18.87
2022-11-01T19:15:04.544Z,18.83
2022-11-01T19:17:04.537Z,18.82
2022-11-01T19:19:04.582Z,18.79
2022-11-01T19:22:04.570Z,18.79
2022-11-01T19:24:08.390Z,18.74
2022-11-01T19:27:04.515Z,18.73
2022-11-01T19:29:04.568Z,18.71
2022-11-01T19:32:04.576Z,18.62
2022-11-01T19:35:04.549Z,18.51
2022-11-01T19:37:14.842Z,18.45
2022-11-01T19:40:04.578Z,18.44
2022-11-01T19:43:04.728Z,18.44
2022-11-01T19:45:04.571Z,18.41
2022-11-01T19:48:04.990Z,18.41
2022-11-01T19:50:14.838Z,18.34
2022-11-01T19:52:14.873Z,18.26
2022-11-01T19:55:04.556Z,18.27
2022-11-01T19:57:04.580Z,18.25
2022-11-01T19:59:14.866Z,18.25
2022-11-01T20:01:14.941Z,18.21
2022-11-01T20:04:35.446Z,18.2
2022-11-01T20:07:14.847Z,18.15
2022-11-01T20:11:04.576Z,18.03
2022-11-01T20:13:05.159Z,18
2022-11-01T20:16:14.887Z,18.07
2022-11-01T20:18:14.867Z,18.04
2022-11-01T20:21:04.589Z,18.04
2022-11-01T20:24:04.575Z,18.02
2022-11-01T20:27:04.594Z,17.99
2022-11-01T20:29:14.887Z,17.92
2022-11-01T20:32:04.577Z,17.84
2022-11-01T20:35:04.569Z,17.79
2022-11-01T20:38:04.553Z,17.76
2022-11-01T20:40:04.572Z,17.71
2022-11-01T20:43:05.030Z,17.64
2022-11-01T20:46:04.577Z,17.53
2022-11-01T20:48:04.583Z,17.53
2022-11-01T20:51:04.611Z,17.48
2022-11-01T20:54:04.585Z,17.53
2022-11-01T20:56:04.816Z,17.53
2022-11-01T20:59:04.626Z,17.56
2022-11-01T21:01:04.698Z,17.54
2022-11-01T21:04:04.606Z,17.49
2022-11-01T21:06:04.586Z,17.45
2022-11-01T21:09:04.579Z,17.44
2022-11-01T21:11:04.600Z,17.41
2022-11-01T21:14:04.584Z,17.44
2022-11-01T21:16:04.589Z,17.43
2022-11-01T21:18:04.613Z,17.41
2022-11-01T21:21:04.588Z,17.37
2022-11-01T21:23:04.860Z,17.39
2022-11-01T21:25:04.621Z,17.35
2022-11-01T21:27:04.601Z,17.34
2022-11-01T21:30:04.609Z,17.34
2022-11-01T21:33:04.608Z,17.34
2022-11-01T21:36:04.597Z,17.31
2022-11-01T21:38:04.826Z,17.29
2022-11-01T21:41:04.618Z,17.28
2022-11-01T21:43:04.631Z,17.29
2022-11-01T21:46:04.646Z,17.27
2022-11-01T21:49:04.611Z,17.24
2022-11-01T21:51:14.948Z,17.23
2022-11-01T21:54:04.796Z,17.19
2022-11-01T21:56:04.602Z,17.17
2022-11-01T21:59:04.599Z,16.98
2022-11-01T22:01:04.643Z,17
2022-11-01T22:04:04.565Z,17.01
2022-11-01T22:06:04.589Z,17.03
2022-11-01T22:08:04.602Z,17
2022-11-01T22:11:04.595Z,16.89
2022-11-01T22:14:04.568Z,16.89
2022-11-01T22:16:04.611Z,16.84
2022-11-01T22:19:04.612Z,16.78
2022-11-01T22:21:04.582Z,16.83
2022-11-01T22:24:04.613Z,16.75
2022-11-01T22:27:04.638Z,16.75
2022-11-01T22:30:04.585Z,16.74
2022-11-01T22:32:04.587Z,16.7
2022-11-01T22:35:04.608Z,16.74
2022-11-01T22:39:04.609Z,16.75
2022-11-01T22:41:04.616Z,16.75
2022-11-01T22:44:04.597Z,16.77
2022-11-01T22:47:04.638Z,16.78
2022-11-01T22:50:14.865Z,16.76
2022-11-01T22:54:04.904Z,16.79
2022-11-01T22:57:04.608Z,16.77
2022-11-01T22:59:04.635Z,16.76
2022-11-01T23:02:04.656Z,16.74
2022-11-01T23:05:04.620Z,16.76
2022-11-01T23:07:04.646Z,16.79
2022-11-01T23:10:04.618Z,16.78
2022-11-01T23:12:04.587Z,16.78
2022-11-01T23:15:04.647Z,16.71
2022-11-01T23:18:04.630Z,16.75
2022-11-01T23:21:04.602Z,16.69
2022-11-01T23:24:04.611Z,16.7
2022-11-01T23:26:04.575Z,16.68
2022-11-01T23:28:04.603Z,16.66
2022-11-01T23:31:04.570Z,16.66
2022-11-01T23:34:04.584Z,16.66
2022-11-01T23:37:04.612Z,16.65
2022-11-01T23:40:04.682Z,16.62
2022-11-01T23:43:04.803Z,16.62
2022-11-01T23:45:04.628Z,16.62
2022-11-01T23:47:04.631Z,16.58
2022-11-01T23:49:25.168Z,16.59
2022-11-01T23:52:14.886Z,16.59
2022-11-01T23:55:04.619Z,16.49
2022-11-01T23:59:04.591Z,16.44
